Time,TemperatureF,DewpointF,PressureIn,WindDirection,WindDirectionDegrees,WindSpeedMPH,WindSpeedGustMPH,Humidity,HourlyPrecipIn,Conditions,Clouds,dailyrainin,SoftwareType,DateUTC
2013-04-10 00:02:00,31.0,29.0,30.11,ENE,68,9.0,19.0,94,0.00,,,0.49,,2013-04-10 05:02:00,
2013-04-10 00:13:00,31.0,29.0,30.11,ENE,68,9.0,19.0,94,0.00,,,0.49,,2013-04-10 05:13:00,
2013-04-10 00:23:00,31.0,29.0,30.12,NE,53,8.0,14.0,94,0.00,,,0.49,,2013-04-10 05:23:00,
2013-04-10 00:33:00,31.0,29.0,30.12,ENE,63,7.0,15.0,94,0.00,,,0.49,,2013-04-10 05:33:00,
2013-04-10 00:42:00,31.0,29.0,30.12,ENE,63,7.0,15.0,94,0.00,,,0.49,,2013-04-10 05:42:00,
2013-04-10 00:52:00,31.0,29.0,30.12,ENE,63,7.0,15.0,94,0.00,,,0.49,,2013-04-10 05:52:00,
2013-04-10 01:03:00,30.0,29.0,30.14,ENE,57,12.0,17.0,95,0.00,,,0.49,,2013-04-10 06:03:00,
2013-04-10 01:12:00,30.0,29.0,30.16,ENE,61,9.0,20.0,95,0.00,,,0.49,,2013-04-10 06:12:00,
2013-04-10 01:22:00,30.0,29.0,30.16,ENE,61,9.0,20.0,95,0.00,,,0.49,,2013-04-10 06:22:00,
2013-04-10 01:32:00,30.0,29.0,30.16,ENE,60,8.0,13.0,96,0.00,,,0.49,,2013-04-10 06:32:00,
2013-04-10 01:42:00,30.0,29.0,30.16,ENE,60,8.0,13.0,96,0.00,,,0.49,,2013-04-10 06:42:00,
2013-04-10 01:52:00,30.0,29.0,30.12,ENE,60,12.0,15.0,96,0.00,,,0.49,,2013-04-10 06:52:00,
2013-04-10 02:02:00,29.0,28.0,30.03,ENE,72,19.0,33.0,96,0.00,,,0.49,,2013-04-10 07:02:00,
2013-04-10 02:12:00,29.0,28.0,30.03,ENE,72,19.0,33.0,96,0.00,,,0.49,,2013-04-10 07:12:00,
2013-04-10 02:22:00,29.0,28.0,30.03,ENE,72,19.0,33.0,96,0.00,,,0.49,,2013-04-10 07:22:00,
2013-04-10 02:32:00,29.0,28.0,30.07,ENE,63,16.0,28.0,96,0.00,,,0.49,,2013-04-10 07:32:00,
2013-04-10 02:42:00,29.0,28.0,30.07,ENE,63,16.0,28.0,96,0.00,,,0.49,,2013-04-10 07:42:00,
2013-04-10 02:52:00,29.0,28.0,30.07,ENE,64,13.0,23.0,96,0.00,,,0.49,,2013-04-10 07:52:00,
2013-04-10 03:02:00,29.0,28.0,30.03,ENE,57,15.0,25.0,95,0.00,,,0.49,,2013-04-10 08:02:00,
2013-04-10 03:12:00,29.0,28.0,30.03,ENE,57,15.0,25.0,95,0.00,,,0.49,,2013-04-10 08:12:00,
2013-04-10 03:22:00,29.0,28.0,30.06,ENE,60,10.0,19.0,95,0.00,,,0.49,,2013-04-10 08:22:00,
2013-04-10 03:32:00,29.0,28.0,30.06,ENE,60,10.0,19.0,95,0.00,,,0.49,,2013-04-10 08:32:00,
2013-04-10 03:42:00,29.0,28.0,30.06,ENE,60,10.0,19.0,95,0.00,,,0.49,,2013-04-10 08:42:00,
2013-04-10 03:52:00,29.0,28.0,30.10,ENE,58,8.0,18.0,95,0.00,,,0.49,,2013-04-10 08:52:00,
2013-04-10 04:02:00,29.0,28.0,30.05,ENE,63,12.0,19.0,95,0.00,,,0.49,,2013-04-10 09:02:00,
2013-04-10 04:12:00,29.0,27.0,30.08,ENE,61,10.0,13.0,94,0.00,,,0.49,,2013-04-10 09:12:00,
2013-04-10 04:22:00,29.0,27.0,30.08,ENE,61,10.0,13.0,94,0.00,,,0.49,,2013-04-10 09:22:00,
2013-04-10 04:32:00,29.0,27.0,30.08,NE,51,12.0,16.0,93,0.00,,,0.49,,2013-04-10 09:32:00,
2013-04-10 04:43:00,29.0,27.0,30.08,NE,51,12.0,16.0,93,0.00,,,0.49,,2013-04-10 09:43:00,
2013-04-10 04:53:00,29.0,27.0,30.08,NE,51,12.0,16.0,93,0.00,,,0.49,,2013-04-10 09:53:00,
2013-04-10 05:03:00,29.0,27.0,30.11,ENE,66,11.0,17.0,92,0.00,,,0.49,,2013-04-10 10:03:00,
2013-04-10 05:13:00,30.0,28.0,30.12,ENE,70,13.0,17.0,91,0.00,,,0.49,,2013-04-10 10:13:00,
2013-04-10 05:23:00,30.0,28.0,30.12,ENE,70,13.0,17.0,91,0.00,,,0.49,,2013-04-10 10:23:00,
2013-04-10 05:33:00,30.0,27.0,30.10,ENE,70,18.0,25.0,89,0.00,,,0.49,,2013-04-10 10:33:00,
2013-04-10 05:42:00,30.0,27.0,30.10,ENE,70,18.0,25.0,89,0.00,,,0.49,,2013-04-10 10:42:00,
2013-04-10 05:52:00,29.0,26.0,30.06,ENE,78,17.0,26.0,89,0.00,,,0.49,,2013-04-10 10:52:00,
2013-04-10 06:02:00,29.0,26.0,30.06,ENE,78,17.0,26.0,89,0.00,,,0.49,,2013-04-10 11:02:00,
2013-04-10 06:12:00,29.0,26.0,30.06,ENE,78,17.0,26.0,89,0.00,,,0.49,,2013-04-10 11:12:00,
2013-04-10 06:22:00,29.0,26.0,30.01,ENE,77,25.0,33.0,88,0.00,,,0.49,,2013-04-10 11:22:00,
2013-04-10 06:32:00,30.0,26.0,29.98,ENE,74,23.0,36.0,85,0.00,,,0.49,,2013-04-10 11:32:00,
2013-04-10 06:42:00,30.0,26.0,29.98,ENE,74,23.0,36.0,85,0.00,,,0.49,,2013-04-10 11:42:00,
2013-04-10 06:52:00,30.0,25.0,30.02,East,79,16.0,24.0,81,0.00,,,0.49,,2013-04-10 11:52:00,
2013-04-10 07:03:00,30.0,24.0,30.03,ENE,58,15.0,18.0,78,0.00,,,0.49,,2013-04-10 12:03:00,
2013-04-10 07:12:00,30.0,24.0,30.03,ENE,58,15.0,18.0,78,0.00,,,0.49,,2013-04-10 12:12:00,
2013-04-10 07:22:00,30.0,24.0,30.03,ENE,58,15.0,18.0,78,0.00,,,0.49,,2013-04-10 12:22:00,
2013-04-10 07:33:00,31.0,25.0,30.05,NE,44,10.0,15.0,78,0.00,,,0.48,,2013-04-10 12:33:00,
2013-04-10 07:42:00,31.0,25.0,30.05,NE,44,10.0,15.0,78,0.00,,,0.48,,2013-04-10 12:42:00,
2013-04-10 07:52:00,30.0,25.0,30.04,NE,53,7.0,13.0,80,0.00,,,0.48,,2013-04-10 12:52:00,
2013-04-10 08:02:00,30.0,25.0,30.04,NE,44,5.0,11.0,82,0.00,,,0.48,,2013-04-10 13:02:00,
2013-04-10 08:12:00,30.0,25.0,30.04,NE,44,5.0,11.0,82,0.00,,,0.48,,2013-04-10 13:12:00,
2013-04-10 08:23:00,31.0,26.0,30.04,NE,51,7.0,12.0,82,0.00,,,0.45,,2013-04-10 13:23:00,
2013-04-10 08:32:00,31.0,26.0,30.05,ENE,57,10.0,13.0,80,0.00,,,0.45,,2013-04-10 13:32:00,
2013-04-10 08:43:00,31.0,26.0,30.05,ENE,57,10.0,13.0,80,0.00,,,0.45,,2013-04-10 13:43:00,
2013-04-10 08:53:00,31.0,26.0,30.05,ENE,57,10.0,13.0,80,0.00,,,0.45,,2013-04-10 13:53:00,
2013-04-10 09:02:00,32.0,26.0,30.07,ENE,63,7.0,11.0,79,0.00,,,0.45,,2013-04-10 14:02:00,
2013-04-10 09:12:00,32.0,26.0,30.07,ENE,63,7.0,11.0,79,0.00,,,0.45,,2013-04-10 14:12:00,
2013-04-10 09:22:00,32.0,25.0,30.06,ENE,66,10.0,19.0,76,0.00,,,0.45,,2013-04-10 14:22:00,
2013-04-10 09:32:00,33.0,25.0,30.03,ENE,61,11.0,19.0,73,0.00,,,0.44,,2013-04-10 14:32:00,
2013-04-10 09:42:00,33.0,25.0,30.03,ENE,61,11.0,19.0,73,0.00,,,0.44,,2013-04-10 14:42:00,
2013-04-10 09:52:00,33.0,25.0,30.02,ENE,63,13.0,19.0,72,0.00,,,0.44,,2013-04-10 14:52:00,
2013-04-10 10:02:00,33.0,25.0,30.02,ENE,63,13.0,19.0,72,0.00,,,0.44,,2013-04-10 15:02:00,
2013-04-10 10:12:00,33.0,25.0,30.02,ENE,63,13.0,19.0,72,0.00,,,0.44,,2013-04-10 15:12:00,
2013-04-10 10:22:00,33.0,24.0,30.04,ENE,72,15.0,24.0,69,0.00,,,0.44,,2013-04-10 15:22:00,
2013-04-10 10:32:00,33.0,23.0,30.04,ENE,70,16.0,21.0,67,0.00,,,0.34,,2013-04-10 15:32:00,
2013-04-10 10:42:00,33.0,23.0,30.04,ENE,70,16.0,21.0,67,0.00,,,0.34,,2013-04-10 15:42:00,
2013-04-10 10:52:00,34.0,24.0,30.06,ENE,66,14.0,18.0,67,0.00,,,0.34,,2013-04-10 15:52:00,
2013-04-10 11:03:00,34.0,24.0,30.06,ENE,73,14.0,18.0,66,0.00,,,0.34,,2013-04-10 16:03:00,
2013-04-10 11:13:00,34.0,24.0,30.06,ENE,73,14.0,18.0,66,0.00,,,0.34,,2013-04-10 16:13:00,
2013-04-10 11:23:00,34.0,24.0,30.06,ENE,73,14.0,18.0,66,0.00,,,0.34,,2013-04-10 16:23:00,
2013-04-10 11:33:00,34.0,24.0,30.05,ENE,78,13.0,20.0,67,0.00,,,0.17,,2013-04-10 16:33:00,
2013-04-10 11:43:00,34.0,24.0,30.05,ENE,78,13.0,20.0,67,0.00,,,0.17,,2013-04-10 16:43:00,
2013-04-10 11:52:00,34.0,24.0,30.03,ENE,61,17.0,26.0,67,0.00,,,0.17,,2013-04-10 16:52:00,
2013-04-10 12:02:00,34.0,25.0,30.02,ENE,75,18.0,24.0,68,0.00,,,0.17,,2013-04-10 17:02:00,
2013-04-10 12:12:00,34.0,25.0,30.01,ENE,58,14.0,25.0,69,0.00,,,0.09,,2013-04-10 17:12:00,
2013-04-10 12:22:00,34.0,25.0,30.01,ENE,58,14.0,25.0,69,0.00,,,0.09,,2013-04-10 17:22:00,
2013-04-10 12:33:00,34.0,25.0,30.01,ENE,58,14.0,25.0,69,0.00,,,0.09,,2013-04-10 17:33:00,
2013-04-10 12:43:00,34.0,25.0,30.01,ENE,58,14.0,25.0,69,0.00,,,0.09,,2013-04-10 17:43:00,
2013-04-10 12:53:00,34.0,25.0,30.01,ENE,70,15.0,19.0,69,0.00,,,0.09,,2013-04-10 17:53:00,
2013-04-10 13:03:00,35.0,26.0,30.02,ENE,68,18.0,26.0,68,0.00,,,0.09,,2013-04-10 18:03:00,
2013-04-10 13:12:00,35.0,26.0,30.02,ENE,68,18.0,26.0,68,0.00,,,0.09,,2013-04-10 18:12:00,
2013-04-10 13:23:00,35.0,26.0,30.02,ENE,76,11.0,15.0,68,0.00,,,0.09,,2013-04-10 18:23:00,
2013-04-10 13:33:00,35.0,25.0,30.04,ENE,72,9.0,16.0,67,0.00,,,0.08,,2013-04-10 18:33:00,
2013-04-10 13:42:00,35.0,25.0,30.04,ENE,72,9.0,16.0,67,0.00,,,0.08,,2013-04-10 18:42:00,
2013-04-10 13:52:00,35.0,25.0,30.04,ENE,72,9.0,16.0,67,0.00,,,0.08,,2013-04-10 18:52:00,
2013-04-10 14:03:00,35.0,25.0,30.05,ENE,66,7.0,12.0,67,0.00,,,0.08,,2013-04-10 19:03:00,
2013-04-10 14:12:00,35.0,25.0,30.05,ENE,66,7.0,12.0,67,0.00,,,0.08,,2013-04-10 19:12:00,
2013-04-10 14:22:00,35.0,26.0,30.07,ENE,61,6.0,12.0,70,0.00,,,0.08,,2013-04-10 19:22:00,
2013-04-10 14:33:00,34.0,27.0,30.06,NE,53,9.0,12.0,76,0.00,,,0.08,,2013-04-10 19:33:00,
2013-04-10 14:42:00,34.0,27.0,30.06,NE,53,9.0,12.0,76,0.00,,,0.08,,2013-04-10 19:42:00,
2013-04-10 14:52:00,33.0,29.0,30.06,ENE,60,8.0,13.0,85,0.00,,,0.08,,2013-04-10 19:52:00,
2013-04-10 15:03:00,33.0,29.0,30.06,ENE,60,8.0,13.0,85,0.00,,,0.08,,2013-04-10 20:03:00,
2013-04-10 15:12:00,33.0,29.0,30.06,ENE,60,8.0,13.0,85,0.00,,,0.08,,2013-04-10 20:12:00,
2013-04-10 15:23:00,33.0,30.0,30.06,ENE,68,9.0,14.0,87,0.00,,,0.08,,2013-04-10 20:23:00,
2013-04-10 15:33:00,32.0,29.0,30.05,ENE,58,6.0,11.0,90,0.00,,,0.08,,2013-04-10 20:33:00,
2013-04-10 15:42:00,32.0,29.0,30.05,ENE,58,6.0,11.0,90,0.00,,,0.08,,2013-04-10 20:42:00,
2013-04-10 15:52:00,33.0,30.0,30.04,ENE,64,11.0,15.0,90,0.00,,,0.08,,2013-04-10 20:52:00,
2013-04-10 16:03:00,33.0,30.0,30.03,ENE,63,11.0,17.0,90,0.01,,,0.09,,2013-04-10 21:03:00,
2013-04-10 16:13:00,33.0,30.0,30.03,ENE,63,11.0,17.0,90,0.01,,,0.09,,2013-04-10 21:13:00,
2013-04-10 16:22:00,33.0,30.0,30.03,ENE,61,13.0,17.0,90,0.01,,,0.09,,2013-04-10 21:22:00,
2013-04-10 16:33:00,33.0,30.0,30.03,ENE,61,13.0,17.0,90,0.01,,,0.09,,2013-04-10 21:33:00,
2013-04-10 16:43:00,33.0,30.0,30.03,ENE,61,13.0,17.0,90,0.01,,,0.09,,2013-04-10 21:43:00,
2013-04-10 16:53:00,32.0,30.0,30.01,ENE,64,11.0,17.0,91,0.01,,,0.09,,2013-04-10 21:53:00,
2013-04-10 17:03:00,32.0,30.0,30.01,East,79,16.0,20.0,92,0.00,,,0.09,,2013-04-10 22:03:00,
2013-04-10 17:13:00,32.0,30.0,30.01,East,79,16.0,20.0,92,0.00,,,0.09,,2013-04-10 22:13:00,
2013-04-10 17:23:00,33.0,31.0,29.99,ENE,74,15.0,20.0,92,0.00,,,0.09,,2013-04-10 22:23:00,
2013-04-10 17:33:00,33.0,31.0,29.98,ENE,70,18.0,22.0,91,0.00,,,0.09,,2013-04-10 22:33:00,
2013-04-10 17:42:00,33.0,31.0,29.98,ENE,70,18.0,22.0,91,0.00,,,0.09,,2013-04-10 22:42:00,
2013-04-10 17:53:00,33.0,31.0,29.98,ENE,70,18.0,22.0,91,0.00,,,0.09,,2013-04-10 22:53:00,
2013-04-10 18:02:00,33.0,30.0,29.97,ENE,66,14.0,20.0,90,0.00,,,0.09,,2013-04-10 23:02:00,
2013-04-10 18:12:00,33.0,30.0,29.97,ENE,66,14.0,20.0,90,0.00,,,0.09,,2013-04-10 23:12:00,
2013-04-10 18:22:00,34.0,31.0,29.97,ENE,68,15.0,20.0,89,0.00,,,0.09,,2013-04-10 23:22:00,
2013-04-10 18:33:00,34.0,31.0,29.97,East,81,15.0,21.0,88,0.00,,,0.09,,2013-04-10 23:33:00,
2013-04-10 18:42:00,34.0,31.0,29.97,East,81,15.0,21.0,88,0.00,,,0.09,,2013-04-10 23:42:00,
2013-04-10 18:52:00,34.0,31.0,29.97,ENE,77,12.0,18.0,87,0.00,,,0.09,,2013-04-10 23:52:00,
2013-04-10 19:02:00,34.0,31.0,29.97,ENE,77,12.0,18.0,87,0.00,,,0.09,,2013-04-11 00:02:00,
2013-04-10 19:12:00,34.0,31.0,29.97,ENE,77,12.0,18.0,87,0.00,,,0.09,,2013-04-11 00:12:00,
2013-04-10 19:22:00,34.0,30.0,29.98,East,82,15.0,17.0,85,0.00,,,0.09,,2013-04-11 00:22:00,
2013-04-10 19:32:00,34.0,30.0,29.96,ENE,63,9.0,15.0,85,0.00,,,0.09,,2013-04-11 00:32:00,
2013-04-10 19:42:00,34.0,30.0,29.96,ENE,63,9.0,15.0,85,0.00,,,0.09,,2013-04-11 00:42:00,
2013-04-10 19:52:00,34.0,30.0,29.95,ENE,74,14.0,17.0,86,0.01,,,0.10,,2013-04-11 00:52:00,
2013-04-10 20:02:00,34.0,30.0,29.92,ENE,65,14.0,17.0,85,0.01,,,0.10,,2013-04-11 01:02:00,
2013-04-10 20:12:00,34.0,30.0,29.92,ENE,65,14.0,17.0,85,0.01,,,0.10,,2013-04-11 01:12:00,
2013-04-10 20:22:00,34.0,30.0,29.92,ENE,65,14.0,17.0,85,0.01,,,0.10,,2013-04-11 01:22:00,
2013-04-10 20:32:00,34.0,30.0,29.91,ENE,72,12.0,16.0,85,0.01,,,0.10,,2013-04-11 01:32:00,
2013-04-10 20:42:00,34.0,30.0,29.91,ENE,72,12.0,16.0,85,0.01,,,0.10,,2013-04-11 01:42:00,
2013-04-10 20:52:00,34.0,30.0,29.89,ENE,74,10.0,15.0,85,0.00,,,0.10,,2013-04-11 01:52:00,
2013-04-10 21:03:00,35.0,30.0,29.89,ENE,72,8.0,12.0,83,0.01,,,0.11,,2013-04-11 02:03:00,
2013-04-10 21:12:00,35.0,30.0,29.89,ENE,72,8.0,12.0,83,0.01,,,0.11,,2013-04-11 02:12:00,
2013-04-10 21:22:00,35.0,30.0,29.89,ESE,105,7.0,10.0,81,0.01,,,0.11,,2013-04-11 02:22:00,
2013-04-10 21:32:00,35.0,30.0,29.91,ESE,105,4.0,8.0,81,0.01,,,0.11,,2013-04-11 02:32:00,
2013-04-10 21:42:00,35.0,30.0,29.91,ESE,105,4.0,8.0,81,0.01,,,0.11,,2013-04-11 02:42:00,
2013-04-10 21:53:00,35.0,30.0,29.91,ESE,105,4.0,8.0,81,0.01,,,0.11,,2013-04-11 02:53:00,
2013-04-10 22:02:00,35.0,30.0,29.92,East,101,5.0,8.0,81,0.01,,,0.11,,2013-04-11 03:02:00,
2013-04-10 22:12:00,35.0,30.0,29.92,East,101,5.0,8.0,81,0.01,,,0.11,,2013-04-11 03:12:00,
2013-04-10 22:22:00,35.0,30.0,29.92,ENE,70,5.0,8.0,81,0.00,,,0.11,,2013-04-11 03:22:00,
2013-04-10 22:33:00,35.0,30.0,29.93,ENE,68,4.0,6.0,81,0.00,,,0.05,,2013-04-11 03:33:00,
2013-04-10 22:43:00,35.0,30.0,29.93,ENE,68,4.0,6.0,81,0.00,,,0.05,,2013-04-11 03:43:00,
2013-04-10 22:53:00,35.0,30.0,29.93,ENE,68,4.0,6.0,81,0.00,,,0.05,,2013-04-11 03:53:00,
2013-04-10 23:03:00,35.0,29.0,29.91,ENE,59,6.0,9.0,79,0.01,,,0.06,,2013-04-11 04:03:00,
2013-04-10 23:13:00,35.0,29.0,29.91,ENE,59,6.0,9.0,79,0.01,,,0.06,,2013-04-11 04:13:00,
2013-04-10 23:22:00,35.0,29.0,29.91,ENE,59,6.0,9.0,79,0.01,,,0.06,,2013-04-11 04:22:00,
2013-04-10 23:33:00,34.0,29.0,29.91,ENE,59,2.0,7.0,83,0.01,,,0.04,,2013-04-11 04:33:00,
2013-04-10 23:42:00,34.0,29.0,29.91,ENE,59,2.0,7.0,83,0.01,,,0.04,,2013-04-11 04:42:00,
2013-04-10 23:52:00,34.0,30.0,29.90,NE,40,5.0,9.0,85,0.00,,,0.04,,2013-04-11 04:52:00,